Time;durP1;ratioP1;P1;durP2;ratioP2;P2;SDS_P1;SDS_P2;PMS_P1;PMS_P2;Temp;Humidity;BMP_temperature;BMP_pressure;BME280_temperature;BME280_humidity;BME280_pressure;Samples;Min_cycle;Max_cycle;Signal;HPM_P1;HPM_P2
2022/12/20 00:01:55;;;;;;;3.60;3.00;;;4.50;99.90;;;;;;5032286;28;20387;-68
2022/12/20 00:04:20;;;;;;;3.13;2.83;;;4.50;99.90;;;;;;5031440;28;20395;-68
2022/12/20 00:06:46;;;;;;;2.90;2.70;;;4.50;99.90;;;;;;5032195;28;20853;-68
2022/12/20 00:09:12;;;;;;;3.30;3.00;;;4.50;99.90;;;;;;5023086;28;20397;-67
2022/12/20 00:11:39;;;;;;;2.90;2.70;;;4.40;99.90;;;;;;5012361;28;20389;-67
2022/12/20 00:14:06;;;;;;;3.25;2.83;;;4.50;99.90;;;;;;5011343;28;20947;-68
2022/12/20 00:16:31;;;;;;;2.90;2.60;;;4.40;99.90;;;;;;5011274;28;20387;-67
2022/12/20 00:19:00;;;;;;;3.00;2.50;;;4.50;99.90;;;;;;5012181;28;20468;-67
2022/12/20 00:21:26;;;;;;;3.25;2.70;;;4.50;99.90;;;;;;5012056;28;20400;-67
2022/12/20 00:23:53;;;;;;;3.30;2.67;;;4.50;99.90;;;;;;5011227;28;20393;-67
2022/12/20 00:26:20;;;;;;;4.13;2.80;;;4.40;99.90;;;;;;5011937;28;20439;-68
2022/12/20 00:28:46;;;;;;;2.60;2.40;;;4.40;99.90;;;;;;5011124;28;20385;-67
2022/12/20 00:31:14;;;;;;;2.50;2.20;;;4.40;99.90;;;;;;5011630;28;20427;-68
2022/12/20 00:33:43;;;;;;;2.50;2.30;;;4.50;99.90;;;;;;5011067;28;20416;-68
2022/12/20 00:36:09;;;;;;;2.60;2.40;;;4.60;99.90;;;;;;5011854;28;20387;-68
2022/12/20 00:38:35;;;;;;;2.50;2.30;;;4.60;99.90;;;;;;5011655;28;20859;-69
2022/12/20 00:41:03;;;;;;;2.42;2.22;;;4.60;99.90;;;;;;5011634;28;20403;-67
2022/12/20 00:43:29;;;;;;;2.80;2.40;;;4.60;99.90;;;;;;5010913;28;20396;-67
2022/12/20 00:45:55;;;;;;;2.70;2.42;;;4.60;99.90;;;;;;5011470;28;20389;-67
2022/12/20 00:48:21;;;;;;;2.20;2.00;;;4.60;99.90;;;;;;5011595;28;20419;-67
2022/12/20 00:50:46;;;;;;;3.38;2.40;;;4.60;99.90;;;;;;5011338;28;20397;-67
2022/12/20 00:53:12;;;;;;;4.13;2.50;;;4.60;99.90;;;;;;5010696;28;20392;-68
2022/12/20 00:55:45;;;;;;;3.08;2.10;;;4.50;99.90;;;;;;5011615;28;20413;-67
2022/12/20 00:58:11;;;;;;;2.50;2.30;;;4.60;99.90;;;;;;5011430;28;20376;-68
2022/12/20 01:00:37;;;;;;;2.60;2.17;;;4.70;99.90;;;;;;5011119;28;20420;-67
2022/12/20 01:03:03;;;;;;;3.00;2.40;;;4.70;99.90;;;;;;5010618;28;20384;-68
2022/12/20 01:05:29;;;;;;;2.60;2.40;;;4.70;99.90;;;;;;5011237;28;20879;-66
2022/12/20 01:07:54;;;;;;;2.40;2.20;;;4.60;99.90;;;;;;5011285;28;20400;-68
2022/12/20 01:10:20;;;;;;;3.40;2.03;;;4.60;99.90;;;;;;5010886;28;20973;-67
2022/12/20 01:12:46;;;;;;;4.30;2.60;;;4.70;99.90;;;;;;5010480;28;20389;-67
2022/12/20 01:15:11;;;;;;;3.23;2.27;;;4.60;99.90;;;;;;5011118;28;20427;-67
2022/12/20 01:17:37;;;;;;;3.25;2.40;;;4.60;99.90;;;;;;5011254;28;20396;-67
2022/12/20 01:20:04;;;;;;;3.53;2.38;;;4.70;99.90;;;;;;5010932;28;20940;-67
2022/12/20 01:22:30;;;;;;;2.53;2.30;;;4.70;99.90;;;;;;5010644;28;20428;-67
2022/12/20 01:24:55;;;;;;;2.63;2.10;;;4.60;99.90;;;;;;5010377;28;20548;-68
2022/12/20 01:27:21;;;;;;;2.90;2.40;;;4.70;99.90;;;;;;5009377;28;20400;-67
2022/12/20 01:29:46;;;;;;;3.50;2.40;;;4.60;99.90;;;;;;5010667;28;20416;-67
2022/12/20 01:32:12;;;;;;;2.58;2.10;;;4.60;99.90;;;;;;5010926;28;20388;-67
2022/12/20 01:34:37;;;;;;;2.72;2.00;;;4.60;99.90;;;;;;5010167;28;20894;-67
2022/12/20 01:37:03;;;;;;;2.65;2.15;;;4.70;99.90;;;;;;5010926;28;20901;-67
2022/12/20 01:39:29;;;;;;;2.55;2.10;;;4.70;99.90;;;;;;5010593;28;20388;-67
2022/12/20 01:41:54;;;;;;;2.70;2.20;;;4.80;99.90;;;;;;5010533;28;20408;-67
2022/12/20 01:44:19;;;;;;;2.30;2.10;;;4.70;99.90;;;;;;5009862;28;20411;-67
2022/12/20 01:46:48;;;;;;;2.33;2.13;;;4.70;99.90;;;;;;5010741;28;20415;-67
2022/12/20 01:49:24;;;;;;;2.70;2.00;;;4.60;99.90;;;;;;5010578;28;20384;-67
2022/12/20 01:52:01;;;;;;;3.00;2.20;;;4.70;99.90;;;;;;5010820;28;20396;-67
2022/12/20 01:54:33;;;;;;;2.50;2.30;;;4.70;99.90;;;;;;5009759;28;20376;-67
2022/12/20 01:57:03;;;;;;;2.42;2.10;;;4.80;99.90;;;;;;5010741;28;20779;-67
2022/12/20 01:59:34;;;;;;;2.55;2.10;;;4.80;99.90;;;;;;5010514;28;20808;-67
2022/12/20 02:02:03;;;;;;;2.45;2.10;;;4.80;99.90;;;;;;5010690;28;20471;-67
2022/12/20 02:04:29;;;;;;;4.00;2.35;;;4.80;99.90;;;;;;5009823;28;20384;-67
2022/12/20 02:06:56;;;;;;;2.50;2.30;;;4.90;99.90;;;;;;5010598;28;20385;-67
2022/12/20 02:09:22;;;;;;;3.08;2.22;;;4.90;99.90;;;;;;5020623;28;20478;-67
2022/12/20 02:12:04;;;;;;;2.30;2.10;;;4.80;99.90;;;;;;5030152;28;20477;-67
2022/12/20 02:14:59;;;;;;;2.20;2.10;;;4.80;99.90;;;;;;5029544;28;20477;-67
2022/12/20 02:17:24;;;;;;;2.10;1.90;;;4.80;99.90;;;;;;5030248;28;20467;-67
2022/12/20 02:20:10;;;;;;;2.40;2.20;;;5.00;99.90;;;;;;5030015;28;20474;-67
2022/12/20 02:22:56;;;;;;;2.67;2.40;;;4.90;99.90;;;;;;5029341;28;20394;-67
2022/12/20 02:25:42;;;;;;;3.40;2.20;;;4.80;99.90;;;;;;5029859;28;20482;-67
2022/12/20 02:28:26;;;;;;;2.50;2.30;;;4.80;99.90;;;;;;5029028;28;20505;-67
2022/12/20 02:30:53;;;;;;;2.50;2.10;;;4.80;99.90;;;;;;5029778;28;20410;-67
2022/12/20 02:33:20;;;;;;;2.20;2.00;;;4.80;99.90;;;;;;5011504;28;20797;-67
2022/12/20 02:35:46;;;;;;;1.80;1.70;;;4.80;99.90;;;;;;5030163;28;20869;-67
2022/12/20 02:38:31;;;;;;;2.00;1.80;;;4.80;99.90;;;;;;5030381;28;20385;-67
2022/12/20 02:41:20;;;;;;;2.63;2.10;;;4.90;99.90;;;;;;5033451;28;20394;-67
2022/12/20 02:46:36;;;;;;;2.08;1.63;;;4.80;99.90;;;;;;5033549;28;20757;-67
2022/12/20 02:49:10;;;;;;;2.67;1.77;;;4.80;99.90;;;;;;5033511;28;20785;-67
2022/12/20 02:51:36;;;;;;;2.35;1.48;;;4.90;99.90;;;;;;5015707;28;20399;-67
2022/12/20 02:54:03;;;;;;;1.50;1.40;;;5.00;99.90;;;;;;5032720;28;20427;-67
2022/12/20 02:56:53;;;;;;;2.75;1.90;;;5.10;99.90;;;;;;5033311;28;20458;-67
2022/12/20 02:59:36;;;;;;;1.83;1.60;;;5.10;99.90;;;;;;5033362;28;20525;-67
2022/12/20 03:02:02;;;;;;;2.38;1.70;;;5.00;99.90;;;;;;5033350;28;20367;-67
2022/12/20 03:04:31;;;;;;;1.60;1.50;;;5.10;99.90;;;;;;5032679;28;20917;-67
2022/12/20 03:07:00;;;;;;;2.20;2.00;;;5.00;99.90;;;;;;5033139;28;20387;-67
2022/12/20 03:09:27;;;;;;;1.60;1.50;;;5.10;99.90;;;;;;5022346;28;20389;-67
2022/12/20 03:11:53;;;;;;;2.40;1.83;;;5.10;99.90;;;;;;5013367;28;20387;-67
2022/12/20 03:14:19;;;;;;;2.00;1.80;;;5.00;99.90;;;;;;5012719;28;20487;-67
2022/12/20 03:16:44;;;;;;;2.30;1.70;;;4.90;99.90;;;;;;5013322;28;20413;-67
2022/12/20 03:19:10;;;;;;;2.40;1.80;;;5.00;99.90;;;;;;4995436;28;20389;-67
2022/12/20 03:21:35;;;;;;;2.20;2.00;;;4.90;99.90;;;;;;5013222;28;20391;-67
2022/12/20 03:24:01;;;;;;;1.88;1.77;;;4.90;99.90;;;;;;5012417;28;20396;-67
2022/12/20 03:26:26;;;;;;;2.10;1.90;;;4.90;99.90;;;;;;5013057;28;20447;-67
2022/12/20 03:28:52;;;;;;;2.67;1.70;;;4.80;99.90;;;;;;5012070;28;20389;-67
2022/12/20 03:31:18;;;;;;;2.30;2.10;;;4.90;99.90;;;;;;5012720;28;20413;-67
2022/12/20 03:33:43;;;;;;;1.70;1.60;;;4.90;99.90;;;;;;5012497;28;20381;-67
2022/12/20 03:36:09;;;;;;;2.97;1.80;;;4.90;99.90;;;;;;5012943;28;20910;-67
2022/12/20 03:38:34;;;;;;;2.27;1.80;;;4.90;99.90;;;;;;5013215;28;20413;-67
2022/12/20 03:41:00;;;;;;;1.80;1.70;;;4.90;99.90;;;;;;5012767;28;20444;-67
2022/12/20 03:43:25;;;;;;;3.00;1.77;;;4.90;99.90;;;;;;5012060;28;20471;-67
2022/12/20 03:45:51;;;;;;;2.30;1.80;;;5.00;99.90;;;;;;5012660;28;20389;-67
2022/12/20 03:48:16;;;;;;;3.47;1.90;;;5.00;99.90;;;;;;5012797;28;20388;-67
2022/12/20 03:50:42;;;;;;;1.80;1.70;;;4.90;99.90;;;;;;5012145;28;20408;-67
2022/12/20 03:53:07;;;;;;;1.83;1.70;;;4.90;99.90;;;;;;5011776;28;20484;-67
2022/12/20 03:55:33;;;;;;;2.00;1.80;;;4.90;99.90;;;;;;5012606;28;20389;-67
2022/12/20 03:57:59;;;;;;;2.70;1.63;;;4.90;99.90;;;;;;5012465;28;20428;-67
2022/12/20 04:00:25;;;;;;;1.90;1.73;;;5.00;99.90;;;;;;5012381;28;20771;-67
2022/12/20 04:02:51;;;;;;;2.08;1.73;;;5.10;99.90;;;;;;5011734;28;20393;-67
2022/12/20 04:05:16;;;;;;;2.00;1.70;;;5.00;99.90;;;;;;5012667;28;20756;-67
2022/12/20 04:07:42;;;;;;;1.73;1.63;;;5.00;99.90;;;;;;5012440;28;20406;-67
2022/12/20 04:10:08;;;;;;;1.60;1.50;;;4.90;99.90;;;;;;5028300;28;20421;-67
2022/12/20 04:12:33;;;;;;;2.40;2.00;;;4.90;99.90;;;;;;5031255;28;20896;-67
2022/12/20 04:14:59;;;;;;;1.70;1.60;;;4.90;99.90;;;;;;5031948;28;20854;-67
2022/12/20 04:17:24;;;;;;;2.13;1.93;;;5.10;99.90;;;;;;5031818;28;20388;-67
2022/12/20 04:19:50;;;;;;;2.10;2.00;;;5.10;99.90;;;;;;5032079;28;20394;-67
2022/12/20 04:22:15;;;;;;;2.10;1.90;;;5.10;99.90;;;;;;5031802;28;20449;-67
2022/12/20 04:24:41;;;;;;;2.75;2.30;;;5.20;99.90;;;;;;5031119;28;20513;-67
2022/12/20 04:27:06;;;;;;;2.83;2.60;;;5.10;99.90;;;;;;5030144;28;20383;-66
2022/12/20 04:29:32;;;;;;;2.20;2.00;;;5.10;99.90;;;;;;5031561;28;20391;-67
2022/12/20 04:31:57;;;;;;;4.40;2.50;;;5.00;99.90;;;;;;5031629;28;20742;-67
2022/12/20 04:34:23;;;;;;;2.50;2.10;;;5.00;99.90;;;;;;5030983;28;20394;-67
2022/12/20 04:36:48;;;;;;;3.93;2.60;;;5.10;99.90;;;;;;5031540;28;20379;-67
2022/12/20 04:39:14;;;;;;;2.60;2.37;;;5.20;99.90;;;;;;5031620;28;21113;-67
2022/12/20 04:41:39;;;;;;;2.70;2.43;;;5.20;99.90;;;;;;5031404;28;20410;-67
2022/12/20 04:44:05;;;;;;;2.60;2.40;;;5.20;99.90;;;;;;5030952;28;20993;-67
2022/12/20 04:46:30;;;;;;;3.50;2.28;;;5.10;99.90;;;;;;5031358;28;20858;-67
2022/12/20 04:48:56;;;;;;;1.98;1.80;;;5.20;99.90;;;;;;5031404;28;20386;-67
2022/12/20 04:51:21;;;;;;;1.90;1.80;;;5.20;99.90;;;;;;5031139;28;20441;-67
2022/12/20 04:53:47;;;;;;;2.10;1.90;;;5.20;99.90;;;;;;5030572;28;20379;-67
2022/12/20 04:56:18;;;;;;;2.97;2.77;;;5.10;99.90;;;;;;5031180;28;20498;-67
2022/12/20 04:58:45;;;;;;;3.35;2.38;;;5.10;99.90;;;;;;5031136;28;20379;-67
2022/12/20 05:01:11;;;;;;;3.93;2.50;;;5.10;99.90;;;;;;5030479;28;20391;-67
2022/12/20 05:03:37;;;;;;;2.70;2.33;;;5.10;99.90;;;;;;5030382;28;20391;-67
2022/12/20 05:06:03;;;;;;;2.88;2.08;;;5.20;99.90;;;;;;5031175;28;20881;-67
2022/12/20 05:08:29;;;;;;;2.70;2.10;;;5.30;99.90;;;;;;5028191;28;20405;-67
2022/12/20 05:10:54;;;;;;;2.50;2.00;;;5.30;99.90;;;;;;5011125;28;20455;-67
2022/12/20 05:13:20;;;;;;;2.23;1.80;;;5.10;99.90;;;;;;5010547;28;20877;-67
2022/12/20 05:15:51;;;;;;;2.55;2.20;;;5.10;99.90;;;;;;4993784;28;20818;-67
2022/12/20 05:18:16;;;;;;;3.22;2.50;;;5.10;99.90;;;;;;5011213;28;20759;-67
2022/12/20 05:20:42;;;;;;;2.60;2.40;;;5.10;99.90;;;;;;5011072;28;20471;-67
2022/12/20 05:26:16;;;;;;;2.40;2.20;;;5.10;99.90;;;;;;4957722;28;21128;-67
2022/12/20 05:28:41;;;;;;;2.78;2.53;;;5.10;99.90;;;;;;5009347;28;20395;-67
2022/12/20 05:31:07;;;;;;;3.17;2.40;;;5.10;99.90;;;;;;5010733;28;20783;-67
2022/12/20 05:33:32;;;;;;;2.60;2.40;;;5.20;99.90;;;;;;5010132;28;20893;-68
2022/12/20 05:35:58;;;;;;;3.80;2.20;;;5.20;99.90;;;;;;5010898;28;20459;-68
2022/12/20 05:38:24;;;;;;;2.42;2.22;;;5.20;99.90;;;;;;5010868;28;20397;-68
2022/12/20 05:40:50;;;;;;;2.83;2.15;;;5.20;99.90;;;;;;5010976;28;20403;-68
2022/12/20 05:43:17;;;;;;;3.42;2.50;;;5.20;99.90;;;;;;5010052;28;20448;-68
2022/12/20 05:45:50;;;;;;;3.90;2.20;;;5.20;99.90;;;;;;5010793;28;20412;-68
2022/12/20 05:48:17;;;;;;;2.80;2.00;;;5.20;99.90;;;;;;5010784;28;20802;-67
2022/12/20 05:50:44;;;;;;;2.40;2.20;;;5.30;99.90;;;;;;5010477;28;20405;-68
2022/12/20 05:53:11;;;;;;;2.53;2.25;;;5.40;99.90;;;;;;5009959;28;20736;-68
2022/12/20 05:55:39;;;;;;;3.17;2.08;;;5.40;99.90;;;;;;4993085;28;20385;-67
2022/12/20 05:58:05;;;;;;;3.28;2.78;;;5.40;99.90;;;;;;5010648;28;20387;-68
2022/12/20 06:00:31;;;;;;;3.73;3.33;;;5.30;99.90;;;;;;5010574;28;20469;-67
2022/12/20 06:02:56;;;;;;;3.13;2.43;;;5.40;99.90;;;;;;5009843;28;20393;-67
2022/12/20 06:05:22;;;;;;;3.70;3.10;;;5.40;99.90;;;;;;5010728;28;20395;-67
2022/12/20 06:07:47;;;;;;;3.50;2.70;;;5.40;99.90;;;;;;5010601;28;20741;-67
2022/12/20 06:10:13;;;;;;;3.10;2.80;;;5.50;99.90;;;;;;5027288;28;20407;-67
2022/12/20 06:12:38;;;;;;;2.80;2.35;;;5.50;99.90;;;;;;5027419;28;20407;-67
2022/12/20 06:15:04;;;;;;;3.50;2.20;;;5.60;99.90;;;;;;5022991;28;20381;-67
2022/12/20 06:17:30;;;;;;;4.20;2.90;;;5.50;99.90;;;;;;5016387;28;20533;-68
2022/12/20 06:19:55;;;;;;;3.60;2.92;;;5.50;99.90;;;;;;5034123;28;20959;-68
2022/12/20 06:22:21;;;;;;;3.58;3.05;;;5.40;99.90;;;;;;5034099;28;20921;-68
2022/12/20 06:24:47;;;;;;;4.00;3.00;;;5.40;99.90;;;;;;5033035;28;20383;-68
2022/12/20 06:27:12;;;;;;;4.57;3.00;;;5.40;99.90;;;;;;5032478;28;20416;-68
2022/12/20 06:29:38;;;;;;;3.95;3.55;;;5.50;99.90;;;;;;5033678;28;20414;-68
2022/12/20 06:32:04;;;;;;;3.90;3.50;;;5.60;99.90;;;;;;5033897;28;20394;-68
2022/12/20 06:34:31;;;;;;;4.75;4.00;;;5.50;99.90;;;;;;5033023;28;20481;-68
2022/12/20 06:36:56;;;;;;;3.80;3.50;;;5.40;99.90;;;;;;5033758;28;20386;-68
2022/12/20 06:39:22;;;;;;;4.23;3.80;;;5.40;99.90;;;;;;5033729;28;20792;-68
2022/12/20 06:41:47;;;;;;;3.60;3.30;;;5.50;99.90;;;;;;5033963;28;20405;-68
2022/12/20 06:44:13;;;;;;;4.73;3.50;;;5.60;99.90;;;;;;5015133;28;20533;-68
2022/12/20 06:46:38;;;;;;;4.97;3.50;;;5.50;99.90;;;;;;5033637;28;20880;-68
2022/12/20 06:49:04;;;;;;;3.40;3.10;;;5.50;99.90;;;;;;5033500;28;20387;-68
2022/12/20 06:51:29;;;;;;;3.33;2.95;;;5.50;99.90;;;;;;5033403;28;20659;-69
2022/12/20 06:53:55;;;;;;;3.13;2.50;;;5.40;99.90;;;;;;5032741;28;20426;-67
2022/12/20 06:56:20;;;;;;;3.00;2.57;;;5.40;99.90;;;;;;5033242;28;20379;-67
2022/12/20 06:58:46;;;;;;;3.30;3.00;;;5.50;99.90;;;;;;5033389;28;20414;-68
2022/12/20 07:01:12;;;;;;;4.10;3.27;;;5.40;99.90;;;;;;5033436;28;20383;-68
2022/12/20 07:03:37;;;;;;;3.70;2.83;;;5.40;99.90;;;;;;5032507;28;20410;-68
2022/12/20 07:06:03;;;;;;;3.50;3.20;;;5.40;99.90;;;;;;5033377;28;20403;-68
2022/12/20 07:08:28;;;;;;;4.93;3.22;;;5.30;99.90;;;;;;5030296;28;20809;-68
2022/12/20 07:10:55;;;;;;;3.90;3.30;;;5.30;99.90;;;;;;5013174;28;20421;-68
2022/12/20 07:13:20;;;;;;;3.78;3.42;;;5.40;99.90;;;;;;5012545;28;20389;-68
2022/12/20 07:15:46;;;;;;;3.40;3.10;;;5.50;99.90;;;;;;5013427;28;20377;-68
2022/12/20 07:18:11;;;;;;;3.50;3.10;;;5.40;99.90;;;;;;5013807;28;20377;-68
2022/12/20 07:20:37;;;;;;;4.23;3.57;;;5.40;99.90;;;;;;5021715;28;20419;-68
2022/12/20 07:23:03;;;;;;;3.67;3.30;;;5.40;99.90;;;;;;5032386;28;20953;-68
2022/12/20 07:25:28;;;;;;;3.60;3.30;;;5.30;99.90;;;;;;5020586;28;20472;-67
2022/12/20 07:27:54;;;;;;;3.92;3.33;;;5.30;99.90;;;;;;5013111;28;20483;-68
2022/12/20 07:30:20;;;;;;;4.28;3.30;;;5.40;99.90;;;;;;5012914;28;20401;-68
2022/12/20 07:32:47;;;;;;;5.53;3.38;;;5.40;99.90;;;;;;4994669;28;20400;-68
2022/12/20 07:35:14;;;;;;;3.72;3.30;;;5.40;99.90;;;;;;5013039;28;20512;-68
2022/12/20 07:37:40;;;;;;;4.40;3.60;;;5.80;99.90;;;;;;5013038;28;20395;-68
2022/12/20 07:40:06;;;;;;;3.80;3.50;;;5.80;99.90;;;;;;5012792;28;20913;-68
2022/12/20 07:42:32;;;;;;;4.45;3.80;;;5.70;99.90;;;;;;4994719;28;20401;-67
2022/12/20 07:44:57;;;;;;;4.32;3.65;;;5.70;99.90;;;;;;5012610;28;20397;-68
2022/12/20 07:47:23;;;;;;;4.13;3.80;;;5.60;99.90;;;;;;5012728;28;20794;-67
2022/12/20 07:49:48;;;;;;;5.03;3.63;;;5.50;99.90;;;;;;4995070;28;20405;-67
2022/12/20 07:52:16;;;;;;;3.67;3.30;;;5.50;99.90;;;;;;5012539;28;20400;-67
2022/12/20 07:54:46;;;;;;;4.38;3.60;;;5.40;99.90;;;;;;5011735;28;20385;-67
2022/12/20 07:57:19;;;;;;;4.15;3.60;;;5.40;99.90;;;;;;5012540;28;20377;-67
2022/12/20 07:59:52;;;;;;;4.80;3.78;;;5.40;99.90;;;;;;5012474;28;20542;-67
2022/12/20 08:02:29;;;;;;;6.13;4.28;;;5.60;99.90;;;;;;4994919;28;20401;-67
2022/12/20 08:04:55;;;;;;;3.63;3.33;;;5.50;99.90;;;;;;5012015;28;20476;-67
2022/12/20 08:07:21;;;;;;;3.33;3.03;;;5.40;99.90;;;;;;5012346;28;20470;-67
2022/12/20 08:09:47;;;;;;;3.70;3.40;;;5.40;99.90;;;;;;5011969;28;20420;-67
2022/12/20 08:12:16;;;;;;;4.60;3.70;;;5.50;99.90;;;;;;5020684;28;20475;-68
2022/12/20 08:14:42;;;;;;;3.78;3.38;;;5.60;99.90;;;;;;5022923;28;20411;-68
2022/12/20 08:17:07;;;;;;;3.50;3.05;;;5.70;99.90;;;;;;5036865;28;20412;-68
2022/12/20 08:19:33;;;;;;;4.93;3.57;;;5.80;99.90;;;;;;5023981;28;20426;-68
2022/12/20 08:21:59;;;;;;;4.50;3.40;;;5.80;99.90;;;;;;5031883;28;20437;-67
2022/12/20 08:24:24;;;;;;;3.90;2.93;;;5.80;99.90;;;;;;5031094;28;20387;-67
2022/12/20 08:26:50;;;;;;;3.90;3.50;;;5.90;99.90;;;;;;5031801;28;20375;-68
2022/12/20 08:29:15;;;;;;;3.97;3.47;;;6.00;99.90;;;;;;5030694;28;20478;-67
2022/12/20 08:31:41;;;;;;;5.00;3.67;;;6.10;99.90;;;;;;5031520;28;20860;-67
2022/12/20 08:34:07;;;;;;;4.90;4.30;;;6.10;99.90;;;;;;5030804;28;20383;-67
2022/12/20 08:36:33;;;;;;;4.32;3.88;;;6.10;99.90;;;;;;5030676;28;20474;-68
2022/12/20 08:39:04;;;;;;;5.82;3.90;;;6.20;99.90;;;;;;5031615;28;20479;-67
2022/12/20 08:41:30;;;;;;;5.85;3.88;;;6.30;99.90;;;;;;5031453;28;20387;-67
2022/12/20 08:43:56;;;;;;;7.20;3.80;;;6.30;99.90;;;;;;5030754;28;20397;-67
2022/12/20 08:46:22;;;;;;;4.90;3.60;;;6.20;99.90;;;;;;5031258;28;20780;-67
2022/12/20 08:48:47;;;;;;;4.07;3.65;;;6.20;99.90;;;;;;5031433;28;20383;-67
2022/12/20 08:51:13;;;;;;;6.15;3.55;;;6.40;99.90;;;;;;5031219;28;20453;-67
2022/12/20 08:53:39;;;;;;;4.32;3.50;;;6.50;99.90;;;;;;5030667;28;20877;-67
2022/12/20 08:56:09;;;;;;;4.00;3.60;;;6.60;99.90;;;;;;5031134;28;20880;-67
2022/12/20 08:58:35;;;;;;;4.32;3.55;;;6.80;99.90;;;;;;5031106;28;20991;-67
2022/12/20 09:01:03;;;;;;;6.25;3.85;;;7.00;99.90;;;;;;5030968;28;20454;-67
2022/12/20 09:03:30;;;;;;;4.90;3.90;;;7.10;99.90;;;;;;5030428;28;20952;-67
2022/12/20 09:05:57;;;;;;;4.72;3.50;;;7.10;99.90;;;;;;5031113;28;20892;-67
2022/12/20 09:08:22;;;;;;;5.43;4.40;;;7.10;99.90;;;;;;5029150;28;20383;-68
2022/12/20 09:10:48;;;;;;;4.72;4.03;;;7.20;99.90;;;;;;5010947;28;20408;-68
2022/12/20 09:13:14;;;;;;;4.90;4.40;;;7.20;99.90;;;;;;5010797;28;20459;-68
2022/12/20 09:15:41;;;;;;;5.32;4.35;;;7.30;99.90;;;;;;5011245;28;20946;-68
2022/12/20 09:18:06;;;;;;;6.05;4.20;;;7.30;99.90;;;;;;5011327;28;20443;-68
2022/12/20 09:20:32;;;;;;;7.07;4.57;;;7.40;99.90;;;;;;5011083;28;20381;-68
2022/12/20 09:22:58;;;;;;;4.70;4.30;;;7.40;99.90;;;;;;5010402;28;20396;-67
2022/12/20 09:25:25;;;;;;;5.13;4.25;;;7.50;99.90;;;;;;5011058;28;20389;-68
2022/12/20 09:27:55;;;;;;;6.72;4.70;;;7.50;99.90;;;;;;5009538;28;20397;-68
2022/12/20 09:30:21;;;;;;;5.28;4.60;;;7.60;99.90;;;;;;5011014;28;20416;-68
2022/12/20 09:32:46;;;;;;;4.47;4.07;;;7.60;99.90;;;;;;5010326;28;20393;-68
2022/12/20 09:35:12;;;;;;;9.60;4.80;;;7.60;99.90;;;;;;5010990;28;20902;-68
2022/12/20 09:37:37;;;;;;;5.50;4.10;;;7.60;99.90;;;;;;5010813;28;20411;-69
2022/12/20 09:40:03;;;;;;;5.77;4.57;;;7.70;99.90;;;;;;5010656;28;20416;-68
2022/12/20 09:42:30;;;;;;;4.88;3.90;;;7.80;99.90;;;;;;5010602;28;20396;-68
2022/12/20 09:45:03;;;;;;;5.20;4.23;;;7.80;99.90;;;;;;5010546;28;20456;-68
2022/12/20 09:47:31;;;;;;;5.13;4.23;;;7.80;99.90;;;;;;5010678;28;20385;-68
2022/12/20 09:49:56;;;;;;;4.43;4.03;;;7.80;99.90;;;;;;5010583;28;20504;-67
2022/12/20 09:52:40;;;;;;;7.33;5.00;;;7.80;99.90;;;;;;5010557;28;21005;-66
2022/12/20 09:55:14;;;;;;;6.67;4.50;;;7.80;99.90;;;;;;5010741;28;20381;-67
2022/12/20 09:58:07;;;;;;;4.85;4.38;;;7.90;99.90;;;;;;5010919;28;20422;-67
2022/12/20 10:00:43;;;;;;;5.40;4.90;;;8.10;99.90;;;;;;4992426;28;20740;-67
2022/12/20 10:03:18;;;;;;;5.03;4.30;;;8.00;99.90;;;;;;5009964;28;20847;-67
2022/12/20 10:05:50;;;;;;;5.27;4.40;;;8.00;99.90;;;;;;4993118;28;20392;-67
2022/12/20 10:08:19;;;;;;;5.03;4.53;;;8.20;99.90;;;;;;5010566;28;20391;-66
2022/12/20 10:10:52;;;;;;;5.00;4.20;;;8.10;99.90;;;;;;5010095;28;20825;-67
2022/12/20 10:13:57;;;;;;;4.63;4.22;;;8.10;99.90;;;;;;5010095;28;20518;-67
2022/12/20 10:16:43;;;;;;;5.00;4.60;;;8.20;99.90;;;;;;5010791;28;20411;-67
2022/12/20 10:19:45;;;;;;;4.70;3.90;;;8.30;99.90;;;;;;5010308;28;20397;-67
2022/12/20 10:22:17;;;;;;;7.43;4.50;;;8.40;99.90;;;;;;5010347;28;20386;-67
2022/12/20 10:25:29;;;;;;;4.57;4.03;;;8.50;99.90;;;;;;5009883;28;20879;-67
2022/12/20 10:27:58;;;;;;;5.72;4.10;;;8.50;99.90;;;;;;5010853;28;20392;-67
2022/12/20 10:30:26;;;;;;;4.82;3.92;;;8.40;99.90;;;;;;5010360;28;20776;-67
2022/12/20 10:32:54;;;;;;;4.50;4.10;;;8.40;99.90;;;;;;5009638;28;20389;-67
2022/12/20 10:35:30;;;;;;;4.10;3.70;;;8.60;99.90;;;;;;5010223;28;20392;-68
2022/12/20 10:38:11;;;;;;;5.05;4.30;;;8.50;99.90;;;;;;5010368;28;20385;-68
2022/12/20 10:40:53;;;;;;;4.60;4.20;;;8.50;99.90;;;;;;5010373;28;20393;-67
2022/12/20 10:43:21;;;;;;;5.43;4.40;;;8.50;99.90;;;;;;5009584;28;20404;-68
2022/12/20 10:46:07;;;;;;;4.72;3.95;;;8.50;99.90;;;;;;5010298;28;20389;-67
2022/12/20 10:48:41;;;;;;;5.47;4.97;;;8.60;99.90;;;;;;5010216;28;20442;-68
2022/12/20 10:51:09;;;;;;;7.87;6.00;;;8.60;99.90;;;;;;5010080;28;20400;-67
2022/12/20 10:53:36;;;;;;;5.90;5.30;;;8.70;99.90;;;;;;5009383;28;20377;-67
2022/12/20 10:56:22;;;;;;;7.30;5.90;;;8.80;99.90;;;;;;5009857;28;20392;-68
2022/12/20 10:58:59;;;;;;;6.25;5.43;;;9.10;99.90;;;;;;5009924;28;20388;-69
2022/12/20 11:01:34;;;;;;;6.95;5.10;;;9.50;99.90;;;;;;5013421;28;20393;-67
2022/12/20 11:04:28;;;;;;;6.40;5.80;;;9.80;99.90;;;;;;5013037;28;20391;-67
2022/12/20 11:06:53;;;;;;;7.27;5.93;;;10.20;99.90;;;;;;5013847;28;20467;-67
2022/12/20 11:09:31;;;;;;;6.43;5.60;;;10.60;99.90;;;;;;5023674;28;20766;-69
2022/12/20 11:12:13;;;;;;;7.32;5.70;;;10.80;99.90;;;;;;5033575;28;20885;-68
2022/12/20 11:14:40;;;;;;;7.22;5.57;;;11.00;99.90;;;;;;5032510;28;20382;-68
2022/12/20 11:17:42;;;;;;;5.75;5.15;;;11.30;99.90;;;;;;5015389;28;20753;-68
2022/12/20 11:20:10;;;;;;;6.43;5.82;;;11.20;99.90;;;;;;5015432;28;20572;-68
2022/12/20 11:22:58;;;;;;;5.85;4.63;;;11.00;99.90;;;;;;5032171;28;20920;-68
2022/12/20 11:25:31;;;;;;;6.03;5.20;;;10.80;99.90;;;;;;5032625;28;20387;-68
2022/12/20 11:28:00;;;;;;;5.82;5.13;;;10.80;99.90;;;;;;5032764;28;20468;-67
2022/12/20 11:30:42;;;;;;;5.93;5.15;;;10.70;99.90;;;;;;5032872;28;20421;-67
2022/12/20 11:33:20;;;;;;;6.88;5.40;;;10.70;99.90;;;;;;5032154;28;20429;-68
2022/12/20 11:35:56;;;;;;;6.10;5.50;;;10.60;99.90;;;;;;5015085;28;20395;-67
2022/12/20 11:38:32;;;;;;;5.93;4.90;;;10.60;99.90;;;;;;5032983;28;20746;-68
2022/12/20 11:41:44;;;;;;;7.15;5.50;;;10.70;99.90;;;;;;5032818;28;20387;-67
2022/12/20 11:44:51;;;;;;;5.22;4.72;;;10.60;99.90;;;;;;4932391;29;20423;-67
2022/12/20 11:47:38;;;;;;;6.63;4.80;;;10.50;99.90;;;;;;4988387;28;20473;-67
2022/12/20 11:50:13;;;;;;;6.10;5.50;;;10.40;99.90;;;;;;5026065;28;20416;-68
2022/12/20 11:53:13;;;;;;;8.03;5.40;;;10.40;99.90;;;;;;5014244;28;20859;-70
2022/12/20 11:55:45;;;;;;;5.85;5.35;;;10.50;99.90;;;;;;4986986;28;20402;-67
2022/12/20 11:58:20;;;;;;;5.38;4.88;;;10.50;99.90;;;;;;5032941;28;20379;-67
2022/12/20 12:01:07;;;;;;;5.90;5.15;;;10.60;99.90;;;;;;5032556;28;20391;-68
2022/12/20 12:03:35;;;;;;;6.00;5.40;;;10.80;99.90;;;;;;5031820;28;20951;-68
2022/12/20 12:06:21;;;;;;;6.25;4.75;;;11.70;99.90;;;;;;5032825;28;20808;-68
2022/12/20 12:09:25;;;;;;;5.65;5.05;;;12.60;99.90;;;;;;5009272;28;20416;-68
2022/12/20 12:12:11;;;;;;;5.00;4.50;;;13.50;99.90;;;;;;5012503;28;20408;-68
2022/12/20 12:15:06;;;;;;;5.60;4.65;;;14.10;99.90;;;;;;5012282;28;20385;-68
2022/12/20 12:17:44;;;;;;;6.07;5.15;;;14.80;99.90;;;;;;5012457;28;20435;-68
2022/12/20 12:20:35;;;;;;;5.20;4.70;;;14.80;98.80;;;;;;5011960;28;20399;-68
2022/12/20 12:23:41;;;;;;;5.30;4.80;;;14.20;99.90;;;;;;5011402;28;20380;-67
2022/12/20 12:26:28;;;;;;;5.50;5.00;;;13.70;99.90;;;;;;4974158;28;20424;-67
2022/12/20 12:29:02;;;;;;;5.37;4.70;;;13.00;99.90;;;;;;5011914;28;20794;-69
2022/12/20 12:31:52;;;;;;;5.72;5.22;;;12.70;99.90;;;;;;5011883;28;20414;-68
2022/12/20 12:34:48;;;;;;;6.20;5.70;;;12.50;99.90;;;;;;5011063;28;20393;-68
2022/12/20 12:37:50;;;;;;;6.90;6.10;;;12.30;99.90;;;;;;5011769;28;20385;-68
2022/12/20 12:40:43;;;;;;;7.47;5.63;;;12.50;99.90;;;;;;5011717;28;20704;-68
2022/12/20 12:43:38;;;;;;;6.68;5.80;;;12.60;99.90;;;;;;5010808;28;20377;-68
2022/12/20 12:46:11;;;;;;;6.03;5.50;;;12.60;99.90;;;;;;5011741;28;20795;-68
2022/12/20 12:48:49;;;;;;;6.40;5.80;;;12.60;99.90;;;;;;5011567;28;20416;-67
2022/12/20 12:51:31;;;;;;;8.05;6.50;;;12.60;99.90;;;;;;5011464;28;20483;-68
2022/12/20 12:54:08;;;;;;;7.55;6.32;;;12.50;99.90;;;;;;5010789;28;20381;-68
2022/12/20 12:56:40;;;;;;;6.40;5.43;;;12.50;99.90;;;;;;5011398;28;20879;-68
2022/12/20 12:59:06;;;;;;;6.97;5.78;;;12.70;99.90;;;;;;5011357;28;20428;-67
2022/12/20 13:01:55;;;;;;;5.93;5.40;;;12.90;99.90;;;;;;5011437;28;20412;-69
2022/12/20 13:04:24;;;;;;;6.00;4.97;;;12.80;99.90;;;;;;4993031;28;20874;-68
2022/12/20 13:06:50;;;;;;;5.60;5.10;;;12.80;99.90;;;;;;5011435;28;20436;-68
2022/12/20 13:09:24;;;;;;;5.10;4.60;;;12.80;99.90;;;;;;5010931;28;20392;-68
2022/12/20 13:11:50;;;;;;;5.40;4.90;;;12.70;99.90;;;;;;5011330;28;20430;-68
2022/12/20 13:14:16;;;;;;;5.28;4.50;;;12.70;99.90;;;;;;5010298;28;20759;-68
2022/12/20 13:16:42;;;;;;;5.40;4.90;;;13.00;99.90;;;;;;5011501;28;20479;-68
2022/12/20 13:19:15;;;;;;;7.30;4.90;;;13.10;99.90;;;;;;5011143;28;20480;-68